Latest Weather Observations for Oodnadatta

IDS60801

Issued at 12:01 pm CST Tuesday 26 July 2016 (issued every 30 minutes, with the page automatically refreshed every 10 minutes)

About weather observations | Map of weather stations | Latest weather observations for SA | Other Formats
Station Details ID: 017043 Name: OODNADATTA AIRPORT Lat: -27.56 Lon: 135.45 Height: 116.5 m
Data from the previous 72 hours. | See also: Recent months at Oodnadatta
Date/Time
CST
Temp
°C
App
Temp
°C
Dew
Point
°C
Rel
Hum
%
Delta-T
°C
Wind Press
QNH
hPa
Press
MSL
hPa
Rain since
9am
mm
Dir  Spd
km/h
Gust
km/h
Spd
kts
Gust
kts
26/12:00pm 18.0 14.4 5.2 43 6.2 WNW 13 19 7 10 1022.9 1022.9 0.0
26/11:30am 17.4 14.6 5.0 44 5.9 WNW 9 13 5 7 1023.4 1023.4 0.0
26/11:00am 16.4 14.2 5.1 47 5.4 NNW 6 7 3 4 1024.0 1024.1 0.0
26/10:30am 15.2 13.3 4.9 50 4.8 NNW 4 7 2 4 1024.2 1024.3 0.0
26/10:00am 13.3 12.1 4.5 55 4.1 CALM 0 6 0 3 1024.4 1024.5 0.0
26/09:30am 11.8 9.8 4.5 61 3.3 NNW 4 7 2 4 1024.2 1024.3 0.0
26/09:00am 10.0 7.5 4.0 66 2.6 NNW 6 7 3 4 1024.0 1024.1 0.0
26/08:30am 7.9 5.1 3.2 72 2.0 NNW 7 9 4 5 1023.8 1023.8 0.0
26/08:00am 5.9 3.2 2.4 78 1.4 NNW 6 7 3 4 1023.3 1023.3 0.0
26/07:30am 4.8 3.1 2.0 82 1.1 CALM 0 0 0 0 1023.2 1023.2 0.0
26/07:00am 4.0 2.2 1.2 82 1.1 CALM 0 0 0 0 1022.8 1022.8 0.0
26/06:30am 4.3 2.5 1.0 79 1.3 CALM 0 4 0 2 1022.5 1022.5 0.0
26/06:00am 5.7 2.4 2.5 80 1.3 NNW 9 11 5 6 1022.2 1022.2 0.0
26/05:30am 5.1 2.3 2.3 82 1.1 NNW 6 7 3 4 1021.7 1021.7 0.0
26/05:00am 5.0 2.5 1.7 79 1.3 NNW 4 7 2 4 1021.5 1021.5 0.0
26/04:30am 6.1 2.0 2.4 77 1.5 NNW 13 15 7 8 1021.6 1021.6 0.0
26/04:00am 5.5 1.4 2.2 79 1.3 NNW 13 15 7 8 1021.6 1021.6 0.0
26/03:30am 5.7 3.3 2.0 77 1.5 NW 4 7 2 4 1021.6 1021.6 0.0
26/03:00am 6.5 2.8 2.6 76 1.6 NNW 11 13 6 7 1021.5 1021.5 0.0
26/02:30am 6.6 2.2 2.7 76 1.6 NNW 15 17 8 9 1021.6 1021.6 0.0
26/02:00am 6.8 3.5 2.5 74 1.8 NW 9 11 5 6 1021.8 1021.8 0.0
26/01:30am 7.2 4.3 2.7 73 1.9 NW 7 9 4 5 1022.0 1022.0 0.0
26/01:00am 7.0 3.0 2.7 74 1.8 NW 13 15 7 8 1022.2 1022.2 0.0
26/12:30am 7.2 3.6 2.7 73 1.9 NW 11 13 6 7 1022.3 1022.3 0.0
26/12:00am 7.9 4.9 2.2 67 2.4 NNW 7 7 4 4 1022.4 1022.4 0.0
 
Date/Time
CST
Temp
°C
App
Temp
°C
Dew
Point
°C
Rel
Hum
%
Delta-T
°C
Wind Press
QNH
hPa
Press
MSL
hPa
Rain since
9am
mm
Dir  Spd
km/h
Gust
km/h
Spd
kts
Gust
kts
25/11:30pm 8.9 5.6 2.7 65 2.6 NNW 9 9 5 5 1022.6 1022.6 0.0
25/11:00pm 9.6 6.5 3.4 65 2.7 N 9 13 5 7 1022.7 1022.7 0.0
25/10:30pm 11.1 8.9 3.6 60 3.3 SW 4 6 2 3 1022.7 1022.7 0.0
25/10:00pm 11.4 9.6 3.7 59 3.4 SW 2 6 1 3 1022.8 1022.8 0.0
25/09:30pm 11.4 9.3 3.9 60 3.3 SW 4 6 2 3 1022.8 1022.8 0.0
25/09:00pm 11.7 9.6 3.7 58 3.6 SW 4 7 2 4 1022.9 1022.9 0.0
25/08:30pm 11.9 10.6 3.9 58 3.6 CALM 0 0 0 0 1022.8 1022.8 0.0
25/08:00pm 13.2 10.5 3.8 53 4.3 SW 7 7 4 4 1022.6 1022.6 0.0
25/07:30pm 13.4 10.4 4.0 53 4.3 SW 9 11 5 6 1022.3 1022.3 0.0
25/07:00pm 14.4 11.7 3.8 49 4.9 W 7 9 4 5 1021.9 1021.9 0.0
25/06:30pm 15.2 12.6 4.0 47 5.2 W 7 7 4 4 1021.5 1021.5 0.0
25/06:00pm 16.0 12.9 3.8 44 5.6 WSW 9 11 5 6 1021.4 1021.4 0.0
25/05:30pm 17.5 14.4 3.8 40 6.4 SW 9 13 5 7 1021.3 1021.3 0.0
25/05:00pm 17.8 15.0 3.3 38 6.8 WSW 7 11 4 6 1021.4 1021.4 0.0
25/04:30pm 18.0 15.5 3.9 39 6.6 SW 6 11 3 6 1021.3 1021.3 0.0
25/04:00pm 17.8 15.2 3.3 38 6.8 WSW 6 13 3 7 1021.3 1021.3 0.0
25/03:30pm 17.6 15.1 3.5 39 6.6 SW 6 17 3 9 1021.6 1021.6 0.0
25/03:00pm 17.8 15.3 3.7 39 6.6 W 6 17 3 9 1021.9 1021.9 0.0
25/02:30pm 17.2 14.1 3.8 41 6.3 WNW 9 19 5 10 1022.2 1022.2 0.0
25/02:00pm 16.9 14.9 4.3 43 6.0 W 4 13 2 7 1022.6 1022.6 0.0
25/01:30pm 16.0 12.6 3.8 44 5.6 WSW 11 19 6 10 1023.1 1023.1 0.0
25/01:00pm 15.3 12.6 3.8 46 5.3 WSW 7 13 4 7 1023.7 1023.7 0.0
25/12:30pm 15.1 11.7 3.9 47 5.1 SSW 11 17 6 9 1024.3 1024.4 0.0
25/12:00pm 14.7 11.8 4.4 50 4.8 SSW 9 19 5 10 1025.0 1025.1 0.0
25/11:30am 14.2 11.3 4.5 52 4.5 SSE 9 15 5 8 1025.6 1025.7 0.0
25/11:00am 13.2 10.6 4.4 55 4.0 S 7 13 4 7 1025.8 1025.9 0.0
25/10:30am 12.2 9.6 4.2 58 3.6 S 7 11 4 6 1026.0 1026.1 0.0
25/10:00am 11.3 8.6 3.8 60 3.4 S 7 11 4 6 1025.9 1026.0 0.0
25/09:30am 10.1 7.5 3.4 63 2.9 S 6 9 3 5 1026.0 1026.1 0.0
25/09:00am 8.6 5.7 2.6 66 2.5 S 7 9 4 5 1025.7 1025.8 0.0
25/08:30am 8.0 6.3 2.0 66 2.5 CALM 0 0 0 0 1025.4 1025.5 0.0
25/08:00am 6.5 4.8 2.0 73 1.8 CALM 0 0 0 0 1025.1 1025.2 0.0
25/07:30am 5.1 3.3 1.4 77 1.5 CALM 0 0 0 0 1024.8 1024.9 0.0
25/07:00am 5.6 3.9 1.9 77 1.5 CALM 0 0 0 0 1024.3 1024.4 0.0
25/06:30am 5.7 2.9 1.8 76 1.6 SSW 6 6 3 3 1024.0 1024.1 0.0
25/06:00am 6.0 2.6 1.7 74 1.7 SSW 9 9 5 5 1023.4 1023.4 0.0
25/05:30am 6.1 3.1 1.8 74 1.7 SSW 7 9 4 5 1023.1 1023.1 0.0
25/05:00am 6.5 2.7 1.8 72 1.9 SW 11 13 6 7 1022.8 1022.8 0.0
25/04:30am 6.4 3.0 1.7 72 1.9 SW 9 11 5 6 1022.8 1022.8 0.0
25/04:00am 6.5 3.1 1.6 71 2.0 SW 9 9 5 5 1022.5 1022.5 0.0
25/03:30am 6.5 3.6 1.6 71 2.0 SW 6 7 3 4 1022.7 1022.7 0.0
25/03:00am 6.0 2.1 1.3 72 1.9 SSW 11 11 6 6 1022.4 1022.4 0.0
25/02:30am 6.9 3.5 1.6 69 2.1 SSW 9 11 5 6 1022.7 1022.7 0.0
25/02:00am 7.3 4.2 1.6 67 2.3 SSW 7 11 4 6 1022.7 1022.7 0.0
25/01:30am 8.1 6.0 1.9 65 2.6 SW 2 7 1 4 1022.8 1022.8 0.0
25/01:00am 8.4 6.8 2.2 65 2.6 CALM 0 0 0 0 1022.9 1022.9 0.0
25/12:30am 7.9 4.9 1.7 65 2.5 SW 7 9 4 5 1023.0 1023.0 0.0
25/12:00am 8.3 4.9 1.9 64 2.6 SSW 9 13 5 7 1022.7 1022.7 0.0
 
Date/Time
CST
Temp
°C
App
Temp
°C
Dew
Point
°C
Rel
Hum
%
Delta-T
°C
Wind Press
QNH
hPa
Press
MSL
hPa
Rain since
9am
mm
Dir  Spd
km/h
Gust
km/h
Spd
kts
Gust
kts
24/11:30pm 9.0 4.5 2.1 62 2.9 SW 15 15 8 8 1023.0 1023.0 0.0
24/11:00pm 9.5 5.7 1.9 59 3.2 SW 11 13 6 7 1023.2 1023.2 0.0
24/10:30pm 9.9 6.5 2.0 58 3.3 SW 9 11 5 6 1023.2 1023.2 0.0
24/10:00pm 10.6 7.2 1.7 54 3.8 SW 9 11 5 6 1023.0 1023.0 0.0
24/09:30pm 11.1 7.3 1.6 52 4.0 SSW 11 13 6 7 1022.9 1022.9 0.0
24/09:00pm 11.9 7.7 1.5 49 4.4 SSW 13 13 7 7 1022.8 1022.8 0.0
24/08:30pm 12.8 8.1 1.2 45 4.9 SSW 15 17 8 9 1022.6 1022.6 0.0
24/08:00pm 13.6 8.5 0.9 42 5.4 SSW 17 20 9 11 1022.2 1022.2 0.0
24/07:30pm 14.3 9.1 0.2 38 6.0 SSW 17 19 9 10 1021.8 1021.8 0.0
24/07:00pm 14.7 9.9 0.2 37 6.2 SW 15 20 8 11 1021.2 1021.2 0.0
24/06:30pm 15.6 10.4 0.2 35 6.6 SW 17 19 9 10 1020.9 1020.9 0.0
24/06:00pm 16.3 10.1 0.0 33 7.0 SW 22 32 12 17 1020.5 1020.5 0.0
24/05:30pm 17.2 10.3 -0.1 31 7.5 SW 26 37 14 20 1020.0 1020.0 0.0
24/05:00pm 17.8 10.9 0.0 30 7.8 SW 26 37 14 20 1019.7 1019.7 0.0
24/04:30pm 17.9 11.4 0.6 31 7.6 SW 24 32 13 17 1019.3 1019.4 0.0
24/04:00pm 18.0 10.7 0.2 30 7.8 SW 28 37 15 20 1019.0 1019.1 0.0
24/03:30pm 18.1 11.2 0.3 30 7.8 SW 26 33 14 18 1018.8 1018.9 0.0
24/03:00pm 17.4 10.9 0.1 31 7.5 WSW 24 33 13 18 1019.1 1019.2 0.0
24/02:30pm 17.6 10.0 0.3 31 7.6 WSW 30 43 16 23 1019.2 1019.3 0.0
24/02:00pm 17.4 9.6 -0.8 29 7.8 WSW 30 41 16 22 1019.5 1019.5 0.0
24/01:30pm 17.0 10.1 0.2 32 7.3 SW 26 41 14 22 1019.8 1019.8 0.0
24/01:00pm 17.2 10.8 1.2 34 7.1 SW 24 35 13 19 1020.3 1020.3 0.0
24/12:30pm 16.7 10.2 0.4 33 7.1 SW 24 35 13 19 1021.1 1021.1 0.0
24/12:00pm 15.8 8.6 0.4 35 6.6 SW 28 39 15 21 1021.4 1021.4 0.0
24/11:30am 15.2 7.9 0.2 36 6.4 SW 28 39 15 21 1021.9 1021.9 0.0
24/11:00am 14.6 7.0 0.8 39 5.9 SW 30 41 16 22 1021.7 1021.7 0.0
24/10:30am 14.2 6.3 0.8 40 5.7 SW 32 43 17 23 1021.9 1021.9 0.0
24/10:00am 13.7 5.9 1.4 43 5.3 SW 32 37 17 20 1021.7 1021.7 0.0
24/09:30am 13.2 6.5 1.5 45 5.0 SW 26 35 14 19 1021.6 1021.6 0.0
24/09:00am 12.4 6.5 1.7 48 4.6 SW 22 30 12 16 1021.2 1021.2 0.0
24/08:30am 11.5 6.0 1.7 51 4.2 SW 20 28 11 15 1020.8 1020.8 0.0
24/08:00am 11.4 6.5 2.2 53 4.0 SW 17 20 9 11 1020.4 1020.4 0.0
24/07:30am 11.1 7.8 2.4 55 3.7 WSW 9 13 5 7 1019.9 1019.9 0.0
24/07:00am 11.5 7.8 2.3 53 4.0 WSW 11 17 6 9 1019.6 1019.6 0.0
24/06:30am 12.2 6.9 2.1 50 4.4 SW 19 24 10 13 1019.0 1019.1 0.0
24/06:00am 12.2 6.9 2.1 50 4.4 SW 19 26 10 14 1018.8 1018.9 0.0
24/05:30am 12.3 7.4 2.2 50 4.4 SW 17 20 9 11 1018.6 1018.7 0.0
24/05:00am 12.4 7.5 2.3 50 4.4 SW 17 22 9 12 1018.2 1018.3 0.0
24/04:30am 12.7 7.8 2.3 49 4.5 SW 17 22 9 12 1017.8 1017.9 0.0
24/04:00am 12.5 7.7 2.4 50 4.4 SW 17 22 9 12 1018.0 1018.1 0.0
24/03:30am 12.1 9.2 4.6 60 3.4 WSW 9 11 5 6 1017.8 1017.9 0.0
24/03:00am 12.6 9.8 5.1 60 3.5 WSW 9 9 5 5 1017.6 1017.7 0.0
24/02:30am 13.3 10.8 4.5 55 4.1 WSW 7 7 4 4 1017.1 1017.2 0.0
24/02:00am 13.4 11.0 4.3 54 4.2 WSW 6 7 3 4 1017.5 1017.6 0.0
24/01:30am 13.8 12.5 4.1 52 4.4 CALM 0 0 0 0 1017.6 1017.7 0.0
24/01:00am 13.7 12.5 4.6 54 4.2 CALM 0 0 0 0 1017.7 1017.8 0.0
24/12:30am 13.8 12.6 4.7 54 4.2 CALM 0 0 0 0 1018.0 1018.1 0.0
24/12:00am 14.1 12.8 4.1 51 4.6 CALM 0 0 0 0 1017.9 1018.0 0.0
 
Date/Time
CST
Temp
°C
App
Temp
°C
Dew
Point
°C
Rel
Hum
%
Delta-T
°C
Wind Press
QNH
hPa
Press
MSL
hPa
Rain since
9am
mm
Dir  Spd
km/h
Gust
km/h
Spd
kts
Gust
kts
23/11:30pm 14.4 13.3 5.0 53 4.4 CALM 0 0 0 0 1018.1 1018.2 0.0
23/11:00pm 14.6 13.2 3.7 48 5.0 CALM 0 0 0 0 1018.3 1018.4 0.0
23/10:30pm 14.4 12.5 2.6 45 5.3 WSW 2 6 1 3 1018.0 1018.1 0.0
23/10:00pm 14.8 13.1 1.7 41 5.8 CALM 0 0 0 0 1018.2 1018.3 0.0
23/09:30pm 15.1 12.3 2.0 41 5.8 WSW 6 6 3 3 1018.4 1018.5 0.0
23/09:00pm 15.0 12.1 1.5 40 5.9 WSW 6 9 3 5 1018.2 1018.3 0.0
23/08:30pm 15.1 12.0 1.6 40 5.9 WSW 7 9 4 5 1018.5 1018.6 0.0
23/08:00pm 15.0 11.5 1.5 40 5.9 WSW 9 9 5 5 1018.3 1018.4 0.0
23/07:30pm 15.0 11.5 1.2 39 6.0 WSW 9 11 5 6 1018.4 1018.5 0.0
23/07:00pm 14.6 11.1 1.2 40 5.8 WSW 9 11 5 6 1018.0 1018.1 0.0
23/06:30pm 15.8 13.1 0.4 35 6.6 WSW 4 9 2 5 1017.8 1017.9 0.0
23/06:00pm 16.3 13.2 0.4 34 6.9 WSW 6 9 3 5 1017.3 1017.4 0.0
23/05:30pm 16.5 13.3 0.6 34 6.9 W 7 11 4 6 1017.7 1017.8 0.0
23/05:00pm 16.7 12.7 0.4 33 7.1 SW 11 17 6 9 1017.8 1017.9 0.0
23/04:30pm 16.6 13.6 0.7 34 6.9 W 6 13 3 7 1017.9 1018.0 0.0
23/04:00pm 16.6 13.4 0.7 34 7.0 WNW 7 13 4 7 1017.9 1018.0 0.0
23/03:30pm 16.9 12.5 0.5 33 7.1 WSW 13 22 7 12 1018.2 1018.3 0.0
23/03:00pm 16.9 12.6 1.0 34 7.0 SSW 13 20 7 11 1018.9 1019.0 0.0
23/02:30pm 16.7 13.1 0.8 34 7.0 S 9 20 5 11 1018.9 1019.0 0.0
23/02:00pm 16.6 13.5 1.5 36 6.7 SSW 7 19 4 10 1019.0 1019.1 0.0
23/01:30pm 16.7 12.7 0.8 34 7.0 SW 11 20 6 11 1019.2 1019.3 0.0
23/01:00pm 15.8 10.8 1.2 37 6.4 S 17 24 9 13 1020.4 1020.4 0.0
23/12:30pm 15.1 10.0 0.9 38 6.1 S 17 26 9 14 1020.6 1020.6 0.0

Other Formats:

Comma delimited format used in spreadsheet applications
http://www.bom.gov.au/fwo/IDS60801/IDS60801.94476.axf

JavaScript Object Notation format (JSON) in row-major order
http://www.bom.gov.au/fwo/IDS60801/IDS60801.94476.json